sensor_id;sensor_type;location;lat;lon;timestamp;P1;durP1;ratioP1;P2;durP2;ratioP2
20093;SDS011;10206;48.012;10.030;2022-12-16T00:01:16;26.47;;;14.70;;
20093;SDS011;10206;48.012;10.030;2022-12-16T00:03:50;28.70;;;14.63;;
20093;SDS011;10206;48.012;10.030;2022-12-16T00:06:18;27.60;;;14.67;;
20093;SDS011;10206;48.012;10.030;2022-12-16T00:08:45;27.37;;;13.80;;
20093;SDS011;10206;48.012;10.030;2022-12-16T00:11:11;26.43;;;14.27;;
20093;SDS011;10206;48.012;10.030;2022-12-16T00:13:38;25.67;;;13.73;;
20093;SDS011;10206;48.012;10.030;2022-12-16T00:16:05;23.33;;;12.60;;
20093;SDS011;10206;48.012;10.030;2022-12-16T00:18:36;22.57;;;12.30;;
20093;SDS011;10206;48.012;10.030;2022-12-16T00:21:02;18.83;;;12.13;;
20093;SDS011;10206;48.012;10.030;2022-12-16T00:23:29;28.27;;;13.70;;
20093;SDS011;10206;48.012;10.030;2022-12-16T00:25:56;33.03;;;15.73;;
20093;SDS011;10206;48.012;10.030;2022-12-16T00:28:22;24.90;;;13.30;;
20093;SDS011;10206;48.012;10.030;2022-12-16T00:30:50;19.33;;;12.27;;
20093;SDS011;10206;48.012;10.030;2022-12-16T00:33:17;23.27;;;12.67;;
20093;SDS011;10206;48.012;10.030;2022-12-16T00:35:45;19.00;;;11.93;;
20093;SDS011;10206;48.012;10.030;2022-12-16T00:38:12;21.77;;;12.53;;
20093;SDS011;10206;48.012;10.030;2022-12-16T00:40:39;20.70;;;12.13;;
20093;SDS011;10206;48.012;10.030;2022-12-16T00:43:05;20.40;;;11.57;;
20093;SDS011;10206;48.012;10.030;2022-12-16T00:45:32;19.90;;;11.63;;
20093;SDS011;10206;48.012;10.030;2022-12-16T00:47:58;22.03;;;12.77;;
20093;SDS011;10206;48.012;10.030;2022-12-16T00:50:24;21.23;;;12.10;;
20093;SDS011;10206;48.012;10.030;2022-12-16T00:52:50;23.43;;;12.30;;
20093;SDS011;10206;48.012;10.030;2022-12-16T00:55:17;20.40;;;11.57;;
20093;SDS011;10206;48.012;10.030;2022-12-16T00:57:43;20.73;;;11.57;;
20093;SDS011;10206;48.012;10.030;2022-12-16T01:00:10;20.97;;;12.17;;
20093;SDS011;10206;48.012;10.030;2022-12-16T01:02:41;20.30;;;12.00;;
20093;SDS011;10206;48.012;10.030;2022-12-16T01:05:09;21.57;;;12.33;;
20093;SDS011;10206;48.012;10.030;2022-12-16T01:07:37;23.83;;;13.10;;
20093;SDS011;10206;48.012;10.030;2022-12-16T01:10:04;25.47;;;13.13;;
20093;SDS011;10206;48.012;10.030;2022-12-16T01:12:32;24.30;;;12.57;;
20093;SDS011;10206;48.012;10.030;2022-12-16T01:14:58;25.27;;;13.43;;
20093;SDS011;10206;48.012;10.030;2022-12-16T01:17:24;24.37;;;12.87;;
20093;SDS011;10206;48.012;10.030;2022-12-16T01:19:51;21.83;;;12.70;;
20093;SDS011;10206;48.012;10.030;2022-12-16T01:22:18;25.13;;;13.17;;
20093;SDS011;10206;48.012;10.030;2022-12-16T01:24:45;23.10;;;12.53;;
20093;SDS011;10206;48.012;10.030;2022-12-16T01:27:11;27.70;;;14.33;;
20093;SDS011;10206;48.012;10.030;2022-12-16T01:29:38;28.43;;;15.23;;
20093;SDS011;10206;48.012;10.030;2022-12-16T01:32:04;25.93;;;14.10;;
20093;SDS011;10206;48.012;10.030;2022-12-16T01:34:30;22.87;;;13.33;;
20093;SDS011;10206;48.012;10.030;2022-12-16T01:36:57;25.77;;;13.47;;
20093;SDS011;10206;48.012;10.030;2022-12-16T01:39:23;28.67;;;15.60;;
20093;SDS011;10206;48.012;10.030;2022-12-16T01:41:51;24.93;;;14.23;;
20093;SDS011;10206;48.012;10.030;2022-12-16T01:44:24;27.80;;;13.53;;
20093;SDS011;10206;48.012;10.030;2022-12-16T01:46:52;30.93;;;15.40;;
20093;SDS011;10206;48.012;10.030;2022-12-16T01:49:27;32.07;;;15.30;;
20093;SDS011;10206;48.012;10.030;2022-12-16T01:52:01;27.73;;;15.23;;
20093;SDS011;10206;48.012;10.030;2022-12-16T01:54:38;32.20;;;16.07;;
20093;SDS011;10206;48.012;10.030;2022-12-16T01:57:10;30.17;;;16.37;;
20093;SDS011;10206;48.012;10.030;2022-12-16T01:59:40;30.70;;;17.03;;
20093;SDS011;10206;48.012;10.030;2022-12-16T02:02:10;39.60;;;22.07;;
20093;SDS011;10206;48.012;10.030;2022-12-16T02:04:38;46.13;;;26.63;;
20093;SDS011;10206;48.012;10.030;2022-12-16T02:07:24;35.53;;;18.07;;
20093;SDS011;10206;48.012;10.030;2022-12-16T02:09:50;31.40;;;16.77;;
20093;SDS011;10206;48.012;10.030;2022-12-16T02:20:38;32.47;;;17.47;;
20093;SDS011;10206;48.012;10.030;2022-12-16T02:37:55;32.47;;;18.60;;
20093;SDS011;10206;48.012;10.030;2022-12-16T02:40:31;46.30;;;25.07;;
20093;SDS011;10206;48.012;10.030;2022-12-16T02:45:51;39.67;;;20.40;;
20093;SDS011;10206;48.012;10.030;2022-12-16T02:48:17;32.13;;;15.73;;
20093;SDS011;10206;48.012;10.030;2022-12-16T02:50:44;34.33;;;17.03;;
20093;SDS011;10206;48.012;10.030;2022-12-16T02:53:14;38.83;;;18.13;;
20093;SDS011;10206;48.012;10.030;2022-12-16T03:01:45;31.80;;;15.77;;
20093;SDS011;10206;48.012;10.030;2022-12-16T03:04:26;29.63;;;15.37;;
20093;SDS011;10206;48.012;10.030;2022-12-16T03:07:02;29.23;;;16.20;;
20093;SDS011;10206;48.012;10.030;2022-12-16T03:09:32;31.30;;;16.87;;
20093;SDS011;10206;48.012;10.030;2022-12-16T03:12:01;32.23;;;17.50;;
20093;SDS011;10206;48.012;10.030;2022-12-16T03:14:32;33.60;;;17.43;;
20093;SDS011;10206;48.012;10.030;2022-12-16T03:17:00;35.20;;;18.23;;
20093;SDS011;10206;48.012;10.030;2022-12-16T03:19:28;30.67;;;16.50;;
20093;SDS011;10206;48.012;10.030;2022-12-16T03:24:27;33.57;;;17.40;;
20093;SDS011;10206;48.012;10.030;2022-12-16T03:27:05;34.77;;;17.80;;
20093;SDS011;10206;48.012;10.030;2022-12-16T03:29:59;35.57;;;18.50;;
20093;SDS011;10206;48.012;10.030;2022-12-16T03:35:24;33.23;;;18.30;;
20093;SDS011;10206;48.012;10.030;2022-12-16T03:37:55;34.73;;;18.20;;
20093;SDS011;10206;48.012;10.030;2022-12-16T03:40:23;34.27;;;18.60;;
20093;SDS011;10206;48.012;10.030;2022-12-16T03:42:51;38.57;;;18.60;;
20093;SDS011;10206;48.012;10.030;2022-12-16T03:45:21;37.30;;;19.47;;
20093;SDS011;10206;48.012;10.030;2022-12-16T03:47:55;36.43;;;19.17;;
20093;SDS011;10206;48.012;10.030;2022-12-16T03:50:30;30.53;;;17.30;;
20093;SDS011;10206;48.012;10.030;2022-12-16T03:52:58;35.90;;;18.97;;
20093;SDS011;10206;48.012;10.030;2022-12-16T03:55:25;35.87;;;18.30;;
20093;SDS011;10206;48.012;10.030;2022-12-16T03:57:51;33.60;;;18.53;;
20093;SDS011;10206;48.012;10.030;2022-12-16T04:00:18;33.87;;;19.17;;
20093;SDS011;10206;48.012;10.030;2022-12-16T04:02:44;35.97;;;18.57;;
20093;SDS011;10206;48.012;10.030;2022-12-16T04:05:10;32.87;;;18.80;;
20093;SDS011;10206;48.012;10.030;2022-12-16T04:07:37;35.10;;;19.30;;
20093;SDS011;10206;48.012;10.030;2022-12-16T04:10:03;38.70;;;20.27;;
20093;SDS011;10206;48.012;10.030;2022-12-16T04:12:31;41.60;;;23.03;;
20093;SDS011;10206;48.012;10.030;2022-12-16T04:15:16;37.33;;;21.33;;
20093;SDS011;10206;48.012;10.030;2022-12-16T04:18:00;36.93;;;20.70;;
20093;SDS011;10206;48.012;10.030;2022-12-16T04:20:47;38.20;;;20.60;;
20093;SDS011;10206;48.012;10.030;2022-12-16T04:23:35;41.97;;;22.67;;
20093;SDS011;10206;48.012;10.030;2022-12-16T04:26:23;36.23;;;20.43;;
20093;SDS011;10206;48.012;10.030;2022-12-16T04:28:49;41.37;;;21.87;;
20093;SDS011;10206;48.012;10.030;2022-12-16T04:31:15;42.47;;;21.77;;
20093;SDS011;10206;48.012;10.030;2022-12-16T04:33:41;41.63;;;22.13;;
20093;SDS011;10206;48.012;10.030;2022-12-16T04:36:26;44.30;;;24.00;;
20093;SDS011;10206;48.012;10.030;2022-12-16T04:39:10;41.03;;;21.70;;
20093;SDS011;10206;48.012;10.030;2022-12-16T04:41:55;43.77;;;22.87;;
20093;SDS011;10206;48.012;10.030;2022-12-16T04:44:40;43.17;;;22.43;;
20093;SDS011;10206;48.012;10.030;2022-12-16T04:47:24;46.13;;;24.67;;
20093;SDS011;10206;48.012;10.030;2022-12-16T04:50:09;41.90;;;22.17;;
20093;SDS011;10206;48.012;10.030;2022-12-16T04:52:54;40.43;;;21.50;;
20093;SDS011;10206;48.012;10.030;2022-12-16T04:55:38;44.13;;;23.27;;
20093;SDS011;10206;48.012;10.030;2022-12-16T04:58:23;49.00;;;24.77;;
20093;SDS011;10206;48.012;10.030;2022-12-16T05:01:08;45.93;;;23.37;;
20093;SDS011;10206;48.012;10.030;2022-12-16T05:04:06;41.93;;;22.17;;
20093;SDS011;10206;48.012;10.030;2022-12-16T05:06:51;43.43;;;23.23;;
20093;SDS011;10206;48.012;10.030;2022-12-16T05:09:35;44.37;;;23.33;;
20093;SDS011;10206;48.012;10.030;2022-12-16T05:12:20;42.33;;;23.60;;
20093;SDS011;10206;48.012;10.030;2022-12-16T05:15:12;45.50;;;24.43;;
20093;SDS011;10206;48.012;10.030;2022-12-16T05:17:57;43.73;;;24.50;;
20093;SDS011;10206;48.012;10.030;2022-12-16T05:20:41;50.60;;;26.17;;
20093;SDS011;10206;48.012;10.030;2022-12-16T05:23:26;46.93;;;24.53;;
20093;SDS011;10206;48.012;10.030;2022-12-16T05:26:11;45.23;;;24.37;;
20093;SDS011;10206;48.012;10.030;2022-12-16T05:28:55;50.80;;;27.23;;
20093;SDS011;10206;48.012;10.030;2022-12-16T05:31:40;55.40;;;29.03;;
20093;SDS011;10206;48.012;10.030;2022-12-16T05:34:24;51.90;;;28.20;;
20093;SDS011;10206;48.012;10.030;2022-12-16T05:37:09;51.53;;;26.53;;
20093;SDS011;10206;48.012;10.030;2022-12-16T05:39:53;51.23;;;26.93;;
20093;SDS011;10206;48.012;10.030;2022-12-16T05:42:39;50.77;;;26.93;;
20093;SDS011;10206;48.012;10.030;2022-12-16T05:45:27;54.27;;;28.53;;
20093;SDS011;10206;48.012;10.030;2022-12-16T05:48:11;47.93;;;26.20;;
20093;SDS011;10206;48.012;10.030;2022-12-16T05:50:56;53.80;;;27.23;;
20093;SDS011;10206;48.012;10.030;2022-12-16T05:53:41;49.27;;;26.40;;
20093;SDS011;10206;48.012;10.030;2022-12-16T05:56:25;43.03;;;23.40;;
20093;SDS011;10206;48.012;10.030;2022-12-16T05:59:10;45.73;;;24.60;;
20093;SDS011;10206;48.012;10.030;2022-12-16T06:01:54;45.00;;;24.97;;
20093;SDS011;10206;48.012;10.030;2022-12-16T06:04:39;46.63;;;24.60;;
20093;SDS011;10206;48.012;10.030;2022-12-16T06:07:23;40.60;;;23.67;;
20093;SDS011;10206;48.012;10.030;2022-12-16T06:10:08;41.63;;;22.17;;
20093;SDS011;10206;48.012;10.030;2022-12-16T06:12:52;42.23;;;22.50;;
20093;SDS011;10206;48.012;10.030;2022-12-16T06:15:37;42.53;;;23.23;;
20093;SDS011;10206;48.012;10.030;2022-12-16T06:18:21;42.90;;;24.20;;
20093;SDS011;10206;48.012;10.030;2022-12-16T06:21:06;48.13;;;25.50;;
20093;SDS011;10206;48.012;10.030;2022-12-16T06:23:50;42.87;;;24.00;;
20093;SDS011;10206;48.012;10.030;2022-12-16T06:26:35;46.10;;;24.70;;
20093;SDS011;10206;48.012;10.030;2022-12-16T06:29:19;49.67;;;26.30;;
20093;SDS011;10206;48.012;10.030;2022-12-16T06:32:04;47.10;;;24.80;;
20093;SDS011;10206;48.012;10.030;2022-12-16T06:34:48;42.87;;;23.87;;
20093;SDS011;10206;48.012;10.030;2022-12-16T06:37:33;42.13;;;23.37;;
20093;SDS011;10206;48.012;10.030;2022-12-16T06:40:28;43.40;;;22.70;;
20093;SDS011;10206;48.012;10.030;2022-12-16T06:43:13;43.93;;;23.20;;
20093;SDS011;10206;48.012;10.030;2022-12-16T06:45:57;41.97;;;23.27;;
20093;SDS011;10206;48.012;10.030;2022-12-16T06:48:42;44.80;;;23.57;;
20093;SDS011;10206;48.012;10.030;2022-12-16T06:51:27;48.57;;;24.40;;
20093;SDS011;10206;48.012;10.030;2022-12-16T06:54:11;45.67;;;24.57;;
20093;SDS011;10206;48.012;10.030;2022-12-16T06:56:56;47.20;;;24.03;;
20093;SDS011;10206;48.012;10.030;2022-12-16T06:59:41;46.03;;;24.77;;
20093;SDS011;10206;48.012;10.030;2022-12-16T07:02:25;46.93;;;24.83;;
20093;SDS011;10206;48.012;10.030;2022-12-16T07:05:10;41.93;;;23.17;;
20093;SDS011;10206;48.012;10.030;2022-12-16T07:07:54;47.27;;;24.23;;
20093;SDS011;10206;48.012;10.030;2022-12-16T07:10:39;44.57;;;22.33;;
20093;SDS011;10206;48.012;10.030;2022-12-16T07:13:24;42.17;;;22.90;;
20093;SDS011;10206;48.012;10.030;2022-12-16T07:16:09;44.67;;;22.67;;
20093;SDS011;10206;48.012;10.030;2022-12-16T07:18:53;43.70;;;23.60;;
20093;SDS011;10206;48.012;10.030;2022-12-16T07:21:38;43.77;;;23.53;;
20093;SDS011;10206;48.012;10.030;2022-12-16T07:24:22;46.07;;;27.33;;
20093;SDS011;10206;48.012;10.030;2022-12-16T07:27:07;49.83;;;24.63;;
20093;SDS011;10206;48.012;10.030;2022-12-16T07:29:52;47.70;;;24.17;;
20093;SDS011;10206;48.012;10.030;2022-12-16T07:32:36;44.63;;;24.10;;
20093;SDS011;10206;48.012;10.030;2022-12-16T07:35:21;45.10;;;24.00;;
20093;SDS011;10206;48.012;10.030;2022-12-16T07:38:06;45.90;;;23.70;;
20093;SDS011;10206;48.012;10.030;2022-12-16T07:40:50;49.90;;;25.47;;
20093;SDS011;10206;48.012;10.030;2022-12-16T07:43:35;48.87;;;23.80;;
20093;SDS011;10206;48.012;10.030;2022-12-16T07:46:19;46.43;;;23.60;;
20093;SDS011;10206;48.012;10.030;2022-12-16T07:49:04;44.90;;;24.43;;
20093;SDS011;10206;48.012;10.030;2022-12-16T07:51:48;49.23;;;25.47;;
20093;SDS011;10206;48.012;10.030;2022-12-16T07:54:33;49.63;;;25.17;;
20093;SDS011;10206;48.012;10.030;2022-12-16T07:57:18;49.27;;;25.43;;
20093;SDS011;10206;48.012;10.030;2022-12-16T08:00:02;53.40;;;26.90;;
20093;SDS011;10206;48.012;10.030;2022-12-16T08:02:54;48.97;;;25.87;;
20093;SDS011;10206;48.012;10.030;2022-12-16T08:05:38;48.70;;;25.97;;
20093;SDS011;10206;48.012;10.030;2022-12-16T08:08:23;47.00;;;24.40;;
20093;SDS011;10206;48.012;10.030;2022-12-16T08:11:08;48.27;;;25.37;;
20093;SDS011;10206;48.012;10.030;2022-12-16T08:13:53;44.50;;;23.93;;
20093;SDS011;10206;48.012;10.030;2022-12-16T08:16:37;52.13;;;25.33;;
20093;SDS011;10206;48.012;10.030;2022-12-16T08:19:22;45.73;;;24.30;;
20093;SDS011;10206;48.012;10.030;2022-12-16T08:22:06;46.13;;;25.07;;
20093;SDS011;10206;48.012;10.030;2022-12-16T08:24:51;47.97;;;25.73;;
20093;SDS011;10206;48.012;10.030;2022-12-16T08:27:36;49.60;;;24.60;;
20093;SDS011;10206;48.012;10.030;2022-12-16T08:30:21;47.37;;;25.77;;
20093;SDS011;10206;48.012;10.030;2022-12-16T08:33:05;46.20;;;24.73;;
20093;SDS011;10206;48.012;10.030;2022-12-16T08:35:50;45.87;;;24.80;;
20093;SDS011;10206;48.012;10.030;2022-12-16T08:38:34;51.30;;;26.30;;
20093;SDS011;10206;48.012;10.030;2022-12-16T08:41:19;51.47;;;25.87;;
20093;SDS011;10206;48.012;10.030;2022-12-16T08:44:03;48.60;;;25.63;;
20093;SDS011;10206;48.012;10.030;2022-12-16T08:46:48;47.70;;;24.53;;
20093;SDS011;10206;48.012;10.030;2022-12-16T08:49:32;50.27;;;26.07;;
20093;SDS011;10206;48.012;10.030;2022-12-16T08:52:31;48.27;;;25.07;;
20093;SDS011;10206;48.012;10.030;2022-12-16T08:55:16;54.47;;;26.47;;
20093;SDS011;10206;48.012;10.030;2022-12-16T08:58:00;57.00;;;29.13;;
20093;SDS011;10206;48.012;10.030;2022-12-16T09:00:45;54.33;;;27.20;;
20093;SDS011;10206;48.012;10.030;2022-12-16T09:03:29;47.30;;;24.93;;
20093;SDS011;10206;48.012;10.030;2022-12-16T09:06:14;47.17;;;25.33;;
20093;SDS011;10206;48.012;10.030;2022-12-16T09:08:58;50.33;;;26.33;;
20093;SDS011;10206;48.012;10.030;2022-12-16T09:11:43;80.70;;;36.20;;
20093;SDS011;10206;48.012;10.030;2022-12-16T09:14:27;83.43;;;40.43;;
20093;SDS011;10206;48.012;10.030;2022-12-16T09:17:12;118.93;;;60.83;;
20093;SDS011;10206;48.012;10.030;2022-12-16T09:19:56;73.90;;;39.00;;
20093;SDS011;10206;48.012;10.030;2022-12-16T09:22:41;107.77;;;53.77;;
20093;SDS011;10206;48.012;10.030;2022-12-16T09:25:26;59.60;;;31.53;;
20093;SDS011;10206;48.012;10.030;2022-12-16T09:28:10;87.43;;;42.30;;
20093;SDS011;10206;48.012;10.030;2022-12-16T09:30:55;75.17;;;35.83;;
20093;SDS011;10206;48.012;10.030;2022-12-16T09:33:39;94.87;;;45.73;;
20093;SDS011;10206;48.012;10.030;2022-12-16T09:36:24;55.37;;;28.50;;
20093;SDS011;10206;48.012;10.030;2022-12-16T09:39:08;64.80;;;31.37;;
20093;SDS011;10206;48.012;10.030;2022-12-16T09:42:04;59.03;;;29.70;;
20093;SDS011;10206;48.012;10.030;2022-12-16T09:48:11;55.60;;;29.67;;
20093;SDS011;10206;48.012;10.030;2022-12-16T09:51:07;50.20;;;26.67;;
20093;SDS011;10206;48.012;10.030;2022-12-16T09:53:54;52.20;;;28.13;;
20093;SDS011;10206;48.012;10.030;2022-12-16T09:56:40;48.90;;;26.97;;
20093;SDS011;10206;48.012;10.030;2022-12-16T09:59:32;54.23;;;28.33;;
20093;SDS011;10206;48.012;10.030;2022-12-16T10:02:20;52.50;;;28.43;;
20093;SDS011;10206;48.012;10.030;2022-12-16T10:05:10;57.83;;;29.80;;
20093;SDS011;10206;48.012;10.030;2022-12-16T10:08:05;58.43;;;29.70;;
20093;SDS011;10206;48.012;10.030;2022-12-16T10:11:10;76.77;;;37.07;;
20093;SDS011;10206;48.012;10.030;2022-12-16T10:17:38;61.83;;;33.20;;
20093;SDS011;10206;48.012;10.030;2022-12-16T10:20:08;63.23;;;35.33;;
20093;SDS011;10206;48.012;10.030;2022-12-16T10:23:15;56.07;;;29.63;;
20093;SDS011;10206;48.012;10.030;2022-12-16T10:26:14;57.77;;;29.93;;
20093;SDS011;10206;48.012;10.030;2022-12-16T10:36:01;40.87;;;23.47;;
20093;SDS011;10206;48.012;10.030;2022-12-16T10:38:33;44.67;;;23.73;;
20093;SDS011;10206;48.012;10.030;2022-12-16T10:41:23;47.10;;;23.97;;
20093;SDS011;10206;48.012;10.030;2022-12-16T10:47:17;42.80;;;23.60;;
20093;SDS011;10206;48.012;10.030;2022-12-16T10:50:02;47.00;;;24.60;;
20093;SDS011;10206;48.012;10.030;2022-12-16T10:55:48;44.53;;;23.47;;
20093;SDS011;10206;48.012;10.030;2022-12-16T10:58:45;44.57;;;24.10;;
20093;SDS011;10206;48.012;10.030;2022-12-16T11:01:36;50.10;;;25.77;;
20093;SDS011;10206;48.012;10.030;2022-12-16T11:04:30;44.63;;;25.00;;
20093;SDS011;10206;48.012;10.030;2022-12-16T11:07:33;51.00;;;26.57;;
20093;SDS011;10206;48.012;10.030;2022-12-16T11:11:00;48.60;;;25.60;;
20093;SDS011;10206;48.012;10.030;2022-12-16T11:14:07;50.77;;;26.63;;
20093;SDS011;10206;48.012;10.030;2022-12-16T11:17:16;50.70;;;26.30;;
20093;SDS011;10206;48.012;10.030;2022-12-16T11:20:17;50.63;;;26.77;;
20093;SDS011;10206;48.012;10.030;2022-12-16T11:26:12;52.97;;;27.67;;
20093;SDS011;10206;48.012;10.030;2022-12-16T11:31:47;55.47;;;27.30;;
20093;SDS011;10206;48.012;10.030;2022-12-16T11:34:39;55.93;;;29.30;;
20093;SDS011;10206;48.012;10.030;2022-12-16T11:37:26;60.10;;;29.80;;
20093;SDS011;10206;48.012;10.030;2022-12-16T11:40:14;60.03;;;30.77;;
20093;SDS011;10206;48.012;10.030;2022-12-16T11:43:01;64.40;;;29.73;;
20093;SDS011;10206;48.012;10.030;2022-12-16T11:45:57;55.37;;;28.47;;
20093;SDS011;10206;48.012;10.030;2022-12-16T11:49:00;57.00;;;29.20;;
20093;SDS011;10206;48.012;10.030;2022-12-16T11:51:51;61.27;;;28.97;;
20093;SDS011;10206;48.012;10.030;2022-12-16T11:55:28;58.17;;;30.33;;
20093;SDS011;10206;48.012;10.030;2022-12-16T11:58:14;56.20;;;28.20;;
20093;SDS011;10206;48.012;10.030;2022-12-16T12:03:59;55.53;;;27.67;;
20093;SDS011;10206;48.012;10.030;2022-12-16T12:07:02;52.30;;;27.67;;
20093;SDS011;10206;48.012;10.030;2022-12-16T12:10:35;54.60;;;27.60;;
20093;SDS011;10206;48.012;10.030;2022-12-16T12:20:00;54.97;;;27.87;;
20093;SDS011;10206;48.012;10.030;2022-12-16T12:22:52;71.10;;;29.87;;
20093;SDS011;10206;48.012;10.030;2022-12-16T12:28:46;62.53;;;29.10;;
20093;SDS011;10206;48.012;10.030;2022-12-16T12:35:08;62.53;;;31.30;;
20093;SDS011;10206;48.012;10.030;2022-12-16T12:38:40;79.60;;;38.87;;
20093;SDS011;10206;48.012;10.030;2022-12-16T12:44:49;64.17;;;31.77;;
20093;SDS011;10206;48.012;10.030;2022-12-16T12:47:48;54.00;;;29.97;;
20093;SDS011;10206;48.012;10.030;2022-12-16T12:50:53;61.23;;;31.27;;
20093;SDS011;10206;48.012;10.030;2022-12-16T12:56:53;64.30;;;32.47;;
20093;SDS011;10206;48.012;10.030;2022-12-16T13:05:58;55.67;;;28.47;;
20093;SDS011;10206;48.012;10.030;2022-12-16T13:11:32;48.70;;;26.90;;
20093;SDS011;10206;48.012;10.030;2022-12-16T13:17:19;50.77;;;26.93;;
20093;SDS011;10206;48.012;10.030;2022-12-16T13:23:22;53.07;;;26.20;;
20093;SDS011;10206;48.012;10.030;2022-12-16T13:26:17;49.70;;;25.20;;
20093;SDS011;10206;48.012;10.030;2022-12-16T13:32:01;50.67;;;26.70;;
20093;SDS011;10206;48.012;10.030;2022-12-16T13:38:33;44.93;;;25.10;;
20093;SDS011;10206;48.012;10.030;2022-12-16T13:41:44;47.47;;;25.53;;
20093;SDS011;10206;48.012;10.030;2022-12-16T13:44:11;44.33;;;24.10;;
20093;SDS011;10206;48.012;10.030;2022-12-16T13:50:35;43.70;;;25.43;;
20093;SDS011;10206;48.012;10.030;2022-12-16T13:53:32;44.73;;;25.83;;
20093;SDS011;10206;48.012;10.030;2022-12-16T13:56:34;50.00;;;26.93;;
20093;SDS011;10206;48.012;10.030;2022-12-16T13:59:24;49.73;;;27.03;;
20093;SDS011;10206;48.012;10.030;2022-12-16T14:02:13;50.87;;;27.80;;
20093;SDS011;10206;48.012;10.030;2022-12-16T14:05:23;52.80;;;28.30;;
20093;SDS011;10206;48.012;10.030;2022-12-16T14:08:16;55.67;;;28.87;;
20093;SDS011;10206;48.012;10.030;2022-12-16T14:11:04;50.57;;;28.73;;
20093;SDS011;10206;48.012;10.030;2022-12-16T14:14:10;54.97;;;29.77;;
20093;SDS011;10206;48.012;10.030;2022-12-16T14:17:03;59.47;;;29.93;;
20093;SDS011;10206;48.012;10.030;2022-12-16T14:22:54;61.93;;;29.93;;
20093;SDS011;10206;48.012;10.030;2022-12-16T14:25:46;61.00;;;28.67;;
20093;SDS011;10206;48.012;10.030;2022-12-16T14:28:38;61.43;;;28.07;;
20093;SDS011;10206;48.012;10.030;2022-12-16T14:31:24;56.23;;;28.00;;
20093;SDS011;10206;48.012;10.030;2022-12-16T14:34:24;54.37;;;28.27;;
20093;SDS011;10206;48.012;10.030;2022-12-16T14:37:13;51.80;;;27.03;;
20093;SDS011;10206;48.012;10.030;2022-12-16T14:40:00;54.80;;;27.30;;
20093;SDS011;10206;48.012;10.030;2022-12-16T14:42:46;54.10;;;27.37;;
20093;SDS011;10206;48.012;10.030;2022-12-16T14:45:35;47.40;;;24.60;;
20093;SDS011;10206;48.012;10.030;2022-12-16T14:48:33;54.77;;;26.80;;
20093;SDS011;10206;48.012;10.030;2022-12-16T14:51:22;46.93;;;24.90;;
20093;SDS011;10206;48.012;10.030;2022-12-16T14:54:19;46.73;;;24.77;;
20093;SDS011;10206;48.012;10.030;2022-12-16T14:57:04;48.37;;;25.37;;
20093;SDS011;10206;48.012;10.030;2022-12-16T15:00:03;53.57;;;26.17;;
20093;SDS011;10206;48.012;10.030;2022-12-16T15:02:54;57.77;;;29.50;;
20093;SDS011;10206;48.012;10.030;2022-12-16T15:05:43;59.33;;;31.03;;
20093;SDS011;10206;48.012;10.030;2022-12-16T15:08:29;59.97;;;30.83;;
20093;SDS011;10206;48.012;10.030;2022-12-16T15:11:18;55.97;;;30.13;;
20093;SDS011;10206;48.012;10.030;2022-12-16T15:14:05;56.27;;;27.37;;
20093;SDS011;10206;48.012;10.030;2022-12-16T15:16:54;57.33;;;31.67;;
20093;SDS011;10206;48.012;10.030;2022-12-16T15:19:45;54.80;;;27.30;;
20093;SDS011;10206;48.012;10.030;2022-12-16T15:22:34;55.43;;;28.33;;
20093;SDS011;10206;48.012;10.030;2022-12-16T15:25:22;63.03;;;31.90;;
20093;SDS011;10206;48.012;10.030;2022-12-16T15:28:21;56.13;;;28.13;;
20093;SDS011;10206;48.012;10.030;2022-12-16T15:31:26;55.87;;;28.53;;
20093;SDS011;10206;48.012;10.030;2022-12-16T15:34:20;57.17;;;27.83;;
20093;SDS011;10206;48.012;10.030;2022-12-16T15:37:29;54.10;;;26.90;;
20093;SDS011;10206;48.012;10.030;2022-12-16T15:40:27;54.87;;;26.07;;
20093;SDS011;10206;48.012;10.030;2022-12-16T15:49:37;77.67;;;32.23;;
20093;SDS011;10206;48.012;10.030;2022-12-16T16:01:11;53.43;;;28.00;;
20093;SDS011;10206;48.012;10.030;2022-12-16T16:04:02;56.57;;;28.43;;
20093;SDS011;10206;48.012;10.030;2022-12-16T16:06:57;50.57;;;25.37;;
20093;SDS011;10206;48.012;10.030;2022-12-16T16:09:42;51.73;;;26.20;;
20093;SDS011;10206;48.012;10.030;2022-12-16T16:12:27;50.63;;;24.90;;
20093;SDS011;10206;48.012;10.030;2022-12-16T16:15:12;52.43;;;26.80;;
20093;SDS011;10206;48.012;10.030;2022-12-16T16:17:58;51.10;;;24.30;;
20093;SDS011;10206;48.012;10.030;2022-12-16T16:20:47;49.53;;;25.63;;
20093;SDS011;10206;48.012;10.030;2022-12-16T16:23:33;48.57;;;24.47;;
20093;SDS011;10206;48.012;10.030;2022-12-16T16:26:19;48.00;;;25.07;;
20093;SDS011;10206;48.012;10.030;2022-12-16T16:29:05;50.43;;;24.60;;
20093;SDS011;10206;48.012;10.030;2022-12-16T16:31:52;51.90;;;26.23;;
20093;SDS011;10206;48.012;10.030;2022-12-16T16:34:36;53.30;;;25.53;;
20093;SDS011;10206;48.012;10.030;2022-12-16T16:37:21;48.37;;;25.30;;
20093;SDS011;10206;48.012;10.030;2022-12-16T16:40:17;60.53;;;28.57;;
20093;SDS011;10206;48.012;10.030;2022-12-16T16:43:09;60.47;;;28.33;;
20093;SDS011;10206;48.012;10.030;2022-12-16T16:45:54;52.87;;;26.27;;
20093;SDS011;10206;48.012;10.030;2022-12-16T16:48:39;58.47;;;28.67;;
20093;SDS011;10206;48.012;10.030;2022-12-16T16:51:24;63.37;;;33.03;;
20093;SDS011;10206;48.012;10.030;2022-12-16T16:54:09;63.20;;;28.80;;
20093;SDS011;10206;48.012;10.030;2022-12-16T16:56:54;64.43;;;32.13;;
20093;SDS011;10206;48.012;10.030;2022-12-16T16:59:44;65.43;;;31.40;;
20093;SDS011;10206;48.012;10.030;2022-12-16T17:02:29;62.83;;;31.83;;
20093;SDS011;10206;48.012;10.030;2022-12-16T17:05:14;61.40;;;30.47;;
20093;SDS011;10206;48.012;10.030;2022-12-16T17:07:59;58.93;;;29.10;;
20093;SDS011;10206;48.012;10.030;2022-12-16T17:10:43;60.97;;;33.13;;
20093;SDS011;10206;48.012;10.030;2022-12-16T17:13:29;49.23;;;25.40;;
20093;SDS011;10206;48.012;10.030;2022-12-16T17:16:14;63.83;;;30.70;;
20093;SDS011;10206;48.012;10.030;2022-12-16T17:18:58;52.10;;;27.07;;
20093;SDS011;10206;48.012;10.030;2022-12-16T17:21:43;60.67;;;29.47;;
20093;SDS011;10206;48.012;10.030;2022-12-16T17:24:28;58.07;;;28.57;;
20093;SDS011;10206;48.012;10.030;2022-12-16T17:27:16;77.00;;;36.07;;
20093;SDS011;10206;48.012;10.030;2022-12-16T17:30:05;73.67;;;35.93;;
20093;SDS011;10206;48.012;10.030;2022-12-16T17:33:01;61.63;;;32.13;;
20093;SDS011;10206;48.012;10.030;2022-12-16T17:35:48;61.13;;;31.17;;
20093;SDS011;10206;48.012;10.030;2022-12-16T17:38:35;56.97;;;30.10;;
20093;SDS011;10206;48.012;10.030;2022-12-16T17:41:21;58.90;;;28.90;;
20093;SDS011;10206;48.012;10.030;2022-12-16T17:44:07;57.77;;;28.40;;
20093;SDS011;10206;48.012;10.030;2022-12-16T17:46:51;53.57;;;27.40;;
20093;SDS011;10206;48.012;10.030;2022-12-16T17:49:35;59.40;;;28.47;;
20093;SDS011;10206;48.012;10.030;2022-12-16T17:52:20;58.07;;;27.80;;